sensor_id;sensor_type;location;lat;lon;timestamp;pressure;altitude;pressure_sealevel;temperature;humidity
23635;BME280;11994;51.038;16.974;2023-03-22T00:00:27;99967.40;;;9.70;90.47
23635;BME280;11994;51.038;16.974;2023-03-22T00:02:56;99967.57;;;9.70;90.50
23635;BME280;11994;51.038;16.974;2023-03-22T00:05:21;99963.17;;;9.72;90.50
23635;BME280;11994;51.038;16.974;2023-03-22T00:07:47;99959.81;;;9.74;90.46
23635;BME280;11994;51.038;16.974;2023-03-22T00:10:15;99954.39;;;9.74;90.58
23635;BME280;11994;51.038;16.974;2023-03-22T00:12:41;99952.46;;;9.74;90.48
23635;BME280;11994;51.038;16.974;2023-03-22T00:15:07;99951.25;;;9.74;90.44
23635;BME280;11994;51.038;16.974;2023-03-22T00:17:33;99950.59;;;9.72;90.51
23635;BME280;11994;51.038;16.974;2023-03-22T00:20:01;99949.89;;;9.72;90.57
23635;BME280;11994;51.038;16.974;2023-03-22T00:22:31;99942.94;;;9.71;90.87
23635;BME280;11994;51.038;16.974;2023-03-22T00:24:56;99940.52;;;9.70;90.86
23635;BME280;11994;51.038;16.974;2023-03-22T00:27:22;99935.30;;;9.69;90.82
23635;BME280;11994;51.038;16.974;2023-03-22T00:29:47;99933.06;;;9.67;91.00
23635;BME280;11994;51.038;16.974;2023-03-22T00:32:12;99926.78;;;9.67;91.44
23635;BME280;11994;51.038;16.974;2023-03-22T00:34:38;99924.39;;;9.65;91.59
23635;BME280;11994;51.038;16.974;2023-03-22T00:37:03;99923.39;;;9.63;91.74
23635;BME280;11994;51.038;16.974;2023-03-22T00:39:29;99915.06;;;9.61;91.64
23635;BME280;11994;51.038;16.974;2023-03-22T00:41:54;99915.60;;;9.60;91.73
23635;BME280;11994;51.038;16.974;2023-03-22T00:44:19;99913.16;;;9.60;91.80
23635;BME280;11994;51.038;16.974;2023-03-22T00:46:45;99908.95;;;9.61;92.05
23635;BME280;11994;51.038;16.974;2023-03-22T00:49:10;99904.95;;;9.60;92.34
23635;BME280;11994;51.038;16.974;2023-03-22T00:51:36;99899.64;;;9.57;92.34
23635;BME280;11994;51.038;16.974;2023-03-22T00:54:01;99896.35;;;9.55;92.40
23635;BME280;11994;51.038;16.974;2023-03-22T00:56:27;99898.09;;;9.55;92.51
23635;BME280;11994;51.038;16.974;2023-03-22T00:58:53;99899.64;;;9.56;92.71
23635;BME280;11994;51.038;16.974;2023-03-22T01:01:18;99899.62;;;9.57;92.56
23635;BME280;11994;51.038;16.974;2023-03-22T01:03:44;99901.70;;;9.58;92.52
23635;BME280;11994;51.038;16.974;2023-03-22T01:06:10;99897.16;;;9.58;92.44
23635;BME280;11994;51.038;16.974;2023-03-22T01:08:35;99895.38;;;9.59;92.43
23635;BME280;11994;51.038;16.974;2023-03-22T01:11:03;99894.10;;;9.62;92.46
23635;BME280;11994;51.038;16.974;2023-03-22T01:13:28;99889.05;;;9.61;92.51
23635;BME280;11994;51.038;16.974;2023-03-22T01:15:53;99888.73;;;9.60;92.50
23635;BME280;11994;51.038;16.974;2023-03-22T01:18:19;99880.35;;;9.60;92.53
23635;BME280;11994;51.038;16.974;2023-03-22T01:20:44;99879.09;;;9.62;92.64
23635;BME280;11994;51.038;16.974;2023-03-22T01:23:10;99876.80;;;9.62;92.79
23635;BME280;11994;51.038;16.974;2023-03-22T01:25:35;99873.51;;;9.61;92.94
23635;BME280;11994;51.038;16.974;2023-03-22T01:28:01;99874.55;;;9.61;92.79
23635;BME280;11994;51.038;16.974;2023-03-22T01:30:27;99870.19;;;9.61;92.96
23635;BME280;11994;51.038;16.974;2023-03-22T01:32:52;99871.75;;;9.62;92.93
23635;BME280;11994;51.038;16.974;2023-03-22T01:35:18;99867.15;;;9.64;92.93
23635;BME280;11994;51.038;16.974;2023-03-22T01:37:44;99868.48;;;9.66;92.92
23635;BME280;11994;51.038;16.974;2023-03-22T01:40:11;99866.34;;;9.68;92.83
23635;BME280;11994;51.038;16.974;2023-03-22T01:42:37;99860.52;;;9.70;92.70
23635;BME280;11994;51.038;16.974;2023-03-22T01:47:47;99859.46;;;9.71;92.55
23635;BME280;11994;51.038;16.974;2023-03-22T01:50:15;99858.70;;;9.73;92.63
23635;BME280;11994;51.038;16.974;2023-03-22T01:52:41;99852.02;;;9.75;92.58
23635;BME280;11994;51.038;16.974;2023-03-22T01:55:07;99853.77;;;9.75;92.59
23635;BME280;11994;51.038;16.974;2023-03-22T01:57:34;99851.21;;;9.72;92.56
23635;BME280;11994;51.038;16.974;2023-03-22T02:00:04;99849.58;;;9.68;92.57
23635;BME280;11994;51.038;16.974;2023-03-22T02:02:34;99848.20;;;9.68;92.71
23635;BME280;11994;51.038;16.974;2023-03-22T02:05:00;99844.56;;;9.66;92.91
23635;BME280;11994;51.038;16.974;2023-03-22T02:07:25;99842.83;;;9.66;93.00
23635;BME280;11994;51.038;16.974;2023-03-22T02:09:52;99838.52;;;9.64;93.12
23635;BME280;11994;51.038;16.974;2023-03-22T02:35:35;99828.52;;;9.78;92.95
23635;BME280;11994;51.038;16.974;2023-03-22T02:38:14;99832.49;;;9.81;92.77
23635;BME280;11994;51.038;16.974;2023-03-22T02:43:33;99831.86;;;9.78;92.93
23635;BME280;11994;51.038;16.974;2023-03-22T02:46:13;99828.57;;;9.77;92.84
23635;BME280;11994;51.038;16.974;2023-03-22T02:51:45;99827.94;;;9.74;92.86
23635;BME280;11994;51.038;16.974;2023-03-22T02:54:17;99830.36;;;9.75;92.86
23635;BME280;11994;51.038;16.974;2023-03-22T02:56:56;99826.92;;;9.74;92.90
23635;BME280;11994;51.038;16.974;2023-03-22T02:59:25;99824.34;;;9.73;92.99
23635;BME280;11994;51.038;16.974;2023-03-22T03:01:55;99827.55;;;9.69;92.93
23635;BME280;11994;51.038;16.974;2023-03-22T03:04:35;99828.48;;;9.67;92.92
23635;BME280;11994;51.038;16.974;2023-03-22T03:07:05;99834.76;;;9.67;92.99
23635;BME280;11994;51.038;16.974;2023-03-22T03:09:34;99842.02;;;9.70;93.06
23635;BME280;11994;51.038;16.974;2023-03-22T03:12:00;99838.33;;;9.71;93.20
23635;BME280;11994;51.038;16.974;2023-03-22T03:14:28;99835.52;;;9.72;93.19
23635;BME280;11994;51.038;16.974;2023-03-22T03:20:09;99841.96;;;9.72;93.29
23635;BME280;11994;51.038;16.974;2023-03-22T03:23:00;99838.85;;;9.77;93.17
23635;BME280;11994;51.038;16.974;2023-03-22T03:25:39;99843.20;;;9.78;93.19
23635;BME280;11994;51.038;16.974;2023-03-22T03:28:19;99850.20;;;9.84;93.44
23635;BME280;11994;51.038;16.974;2023-03-22T03:31:23;99853.13;;;9.93;93.48
23635;BME280;11994;51.038;16.974;2023-03-22T03:34:24;99855.15;;;10.01;93.41
23635;BME280;11994;51.038;16.974;2023-03-22T03:37:12;99859.89;;;10.08;93.29
23635;BME280;11994;51.038;16.974;2023-03-22T03:39:43;99862.13;;;10.16;93.21
23635;BME280;11994;51.038;16.974;2023-03-22T03:42:15;99861.76;;;10.23;93.12
23635;BME280;11994;51.038;16.974;2023-03-22T03:44:41;99863.51;;;10.23;92.85
23635;BME280;11994;51.038;16.974;2023-03-22T03:47:08;99862.02;;;10.26;92.97
23635;BME280;11994;51.038;16.974;2023-03-22T03:49:35;99866.14;;;10.34;93.20
23635;BME280;11994;51.038;16.974;2023-03-22T03:52:00;99867.77;;;10.39;92.98
23635;BME280;11994;51.038;16.974;2023-03-22T03:54:28;99871.42;;;10.39;92.72
23635;BME280;11994;51.038;16.974;2023-03-22T03:56:53;99874.36;;;10.41;92.66
23635;BME280;11994;51.038;16.974;2023-03-22T03:59:18;99876.85;;;10.45;92.45
23635;BME280;11994;51.038;16.974;2023-03-22T04:01:45;99876.95;;;10.42;92.10
23635;BME280;11994;51.038;16.974;2023-03-22T04:04:18;99879.05;;;10.36;91.89
23635;BME280;11994;51.038;16.974;2023-03-22T04:06:50;99878.04;;;10.28;92.03
23635;BME280;11994;51.038;16.974;2023-03-22T04:09:17;99876.33;;;10.27;92.21
23635;BME280;11994;51.038;16.974;2023-03-22T04:11:42;99877.52;;;10.28;92.09
23635;BME280;11994;51.038;16.974;2023-03-22T04:14:08;99872.02;;;10.25;92.03
23635;BME280;11994;51.038;16.974;2023-03-22T04:16:33;99866.90;;;10.27;92.07
23635;BME280;11994;51.038;16.974;2023-03-22T04:18:58;99863.66;;;10.24;91.85
23635;BME280;11994;51.038;16.974;2023-03-22T04:21:24;99859.45;;;10.18;91.80
23635;BME280;11994;51.038;16.974;2023-03-22T04:23:49;99854.40;;;10.11;91.77
23635;BME280;11994;51.038;16.974;2023-03-22T04:26:15;99854.91;;;10.05;91.82
23635;BME280;11994;51.038;16.974;2023-03-22T04:28:40;99855.30;;;10.02;91.80
23635;BME280;11994;51.038;16.974;2023-03-22T04:31:06;99862.01;;;10.00;91.90
23635;BME280;11994;51.038;16.974;2023-03-22T04:33:32;99863.63;;;9.98;92.04
23635;BME280;11994;51.038;16.974;2023-03-22T04:36:04;99864.02;;;9.97;92.09
23635;BME280;11994;51.038;16.974;2023-03-22T04:38:31;99859.89;;;9.94;92.07
23635;BME280;11994;51.038;16.974;2023-03-22T04:40:57;99852.59;;;9.86;91.99
23635;BME280;11994;51.038;16.974;2023-03-22T04:43:22;99847.29;;;9.82;92.00
23635;BME280;11994;51.038;16.974;2023-03-22T04:45:48;99848.65;;;9.77;91.99
23635;BME280;11994;51.038;16.974;2023-03-22T04:48:13;99850.67;;;9.73;92.15
23635;BME280;11994;51.038;16.974;2023-03-22T04:50:39;99848.41;;;9.66;92.25
23635;BME280;11994;51.038;16.974;2023-03-22T04:53:06;99840.61;;;9.57;92.35
23635;BME280;11994;51.038;16.974;2023-03-22T04:55:31;99835.20;;;9.50;92.60
23635;BME280;11994;51.038;16.974;2023-03-22T04:57:58;99834.96;;;9.46;92.90
23635;BME280;11994;51.038;16.974;2023-03-22T05:00:23;99831.42;;;9.41;93.03
23635;BME280;11994;51.038;16.974;2023-03-22T05:02:49;99826.05;;;9.40;93.35
23635;BME280;11994;51.038;16.974;2023-03-22T05:05:15;99827.98;;;9.39;93.45
23635;BME280;11994;51.038;16.974;2023-03-22T05:07:40;99830.98;;;9.44;93.94
23635;BME280;11994;51.038;16.974;2023-03-22T05:10:06;99832.52;;;9.53;94.09
23635;BME280;11994;51.038;16.974;2023-03-22T05:12:32;99834.23;;;9.60;94.02
23635;BME280;11994;51.038;16.974;2023-03-22T05:14:57;99834.05;;;9.67;93.75
23635;BME280;11994;51.038;16.974;2023-03-22T05:17:25;99832.78;;;9.69;93.36
23635;BME280;11994;51.038;16.974;2023-03-22T05:19:50;99829.61;;;9.64;93.36
23635;BME280;11994;51.038;16.974;2023-03-22T05:22:16;99833.17;;;9.54;93.52
23635;BME280;11994;51.038;16.974;2023-03-22T05:24:43;99836.03;;;9.45;93.60
23635;BME280;11994;51.038;16.974;2023-03-22T05:27:08;99838.39;;;9.41;93.82
23635;BME280;11994;51.038;16.974;2023-03-22T05:29:35;99842.01;;;9.44;93.89
23635;BME280;11994;51.038;16.974;2023-03-22T05:32:01;99845.89;;;9.49;94.00
23635;BME280;11994;51.038;16.974;2023-03-22T05:34:27;99846.45;;;9.54;94.15
23635;BME280;11994;51.038;16.974;2023-03-22T05:36:59;99854.21;;;9.64;94.41
23635;BME280;11994;51.038;16.974;2023-03-22T05:39:25;99851.01;;;9.67;94.07
23635;BME280;11994;51.038;16.974;2023-03-22T05:41:50;99851.31;;;9.62;93.66
23635;BME280;11994;51.038;16.974;2023-03-22T05:44:16;99851.25;;;9.57;93.68
23635;BME280;11994;51.038;16.974;2023-03-22T05:46:41;99857.49;;;9.59;93.89
23635;BME280;11994;51.038;16.974;2023-03-22T05:49:06;99858.64;;;9.62;93.99
23635;BME280;11994;51.038;16.974;2023-03-22T05:51:32;99853.39;;;9.63;93.82
23635;BME280;11994;51.038;16.974;2023-03-22T05:53:58;99852.60;;;9.59;93.90
23635;BME280;11994;51.038;16.974;2023-03-22T05:56:23;99850.91;;;9.57;93.93
23635;BME280;11994;51.038;16.974;2023-03-22T05:58:48;99846.92;;;9.56;93.92
23635;BME280;11994;51.038;16.974;2023-03-22T06:01:15;99844.96;;;9.58;94.14
23635;BME280;11994;51.038;16.974;2023-03-22T06:03:40;99845.57;;;9.61;94.22
23635;BME280;11994;51.038;16.974;2023-03-22T06:06:07;99848.35;;;9.61;94.22
23635;BME280;11994;51.038;16.974;2023-03-22T06:08:36;99845.28;;;9.59;94.29
23635;BME280;11994;51.038;16.974;2023-03-22T06:11:02;99848.48;;;9.56;94.39
23635;BME280;11994;51.038;16.974;2023-03-22T06:13:27;99845.41;;;9.54;94.45
23635;BME280;11994;51.038;16.974;2023-03-22T06:15:53;99845.02;;;9.55;94.50
23635;BME280;11994;51.038;16.974;2023-03-22T06:18:18;99841.88;;;9.55;94.63
23635;BME280;11994;51.038;16.974;2023-03-22T06:20:44;99841.64;;;9.58;94.88
23635;BME280;11994;51.038;16.974;2023-03-22T06:23:09;99845.41;;;9.60;95.13
23635;BME280;11994;51.038;16.974;2023-03-22T06:25:35;99845.71;;;9.62;95.16
23635;BME280;11994;51.038;16.974;2023-03-22T06:28:00;99850.02;;;9.65;95.29
23635;BME280;11994;51.038;16.974;2023-03-22T06:30:26;99848.36;;;9.68;95.28
23635;BME280;11994;51.038;16.974;2023-03-22T06:32:52;99849.98;;;9.73;95.35
23635;BME280;11994;51.038;16.974;2023-03-22T06:35:17;99840.42;;;9.85;96.11
23635;BME280;11994;51.038;16.974;2023-03-22T06:37:43;99840.73;;;10.06;96.25
23635;BME280;11994;51.038;16.974;2023-03-22T06:40:09;99840.96;;;10.28;96.66
23635;BME280;11994;51.038;16.974;2023-03-22T06:42:35;99837.04;;;10.49;96.63
23635;BME280;11994;51.038;16.974;2023-03-22T06:45:01;99840.91;;;10.66;96.32
23635;BME280;11994;51.038;16.974;2023-03-22T06:47:26;99846.05;;;10.81;96.34
23635;BME280;11994;51.038;16.974;2023-03-22T06:49:52;99848.58;;;11.01;96.15
23635;BME280;11994;51.038;16.974;2023-03-22T06:52:18;99849.41;;;11.14;95.83
23635;BME280;11994;51.038;16.974;2023-03-22T06:54:45;99852.08;;;11.23;95.68
23635;BME280;11994;51.038;16.974;2023-03-22T06:57:10;99851.98;;;11.26;95.01
23635;BME280;11994;51.038;16.974;2023-03-22T06:59:36;99856.45;;;11.24;94.51
23635;BME280;11994;51.038;16.974;2023-03-22T07:02:01;99856.35;;;11.22;94.52
23635;BME280;11994;51.038;16.974;2023-03-22T07:04:27;99856.73;;;11.25;94.56
23635;BME280;11994;51.038;16.974;2023-03-22T07:06:53;99855.34;;;11.31;94.66
23635;BME280;11994;51.038;16.974;2023-03-22T07:09:18;99856.65;;;11.39;94.65
23635;BME280;11994;51.038;16.974;2023-03-22T07:11:44;99854.20;;;11.49;94.82
23635;BME280;11994;51.038;16.974;2023-03-22T07:14:09;99859.69;;;11.59;94.60
23635;BME280;11994;51.038;16.974;2023-03-22T07:16:35;99860.64;;;11.67;94.50
23635;BME280;11994;51.038;16.974;2023-03-22T07:19:00;99861.80;;;11.84;94.77
23635;BME280;11994;51.038;16.974;2023-03-22T07:21:26;99855.50;;;11.99;94.50
23635;BME280;11994;51.038;16.974;2023-03-22T07:23:51;99854.05;;;12.05;93.99
23635;BME280;11994;51.038;16.974;2023-03-22T07:26:16;99850.98;;;12.03;93.53
23635;BME280;11994;51.038;16.974;2023-03-22T07:28:42;99854.92;;;12.05;93.57
23635;BME280;11994;51.038;16.974;2023-03-22T07:31:10;99853.69;;;12.15;93.80
23635;BME280;11994;51.038;16.974;2023-03-22T07:33:37;99848.81;;;12.24;93.17
23635;BME280;11994;51.038;16.974;2023-03-22T07:36:04;99842.69;;;12.33;93.27
23635;BME280;11994;51.038;16.974;2023-03-22T07:38:29;99838.45;;;12.47;93.22
23635;BME280;11994;51.038;16.974;2023-03-22T07:40:54;99840.92;;;12.56;92.84
23635;BME280;11994;51.038;16.974;2023-03-22T07:43:21;99843.66;;;12.58;92.11
23635;BME280;11994;51.038;16.974;2023-03-22T07:45:50;99841.11;;;12.61;92.07
23635;BME280;11994;51.038;16.974;2023-03-22T07:48:20;99839.14;;;12.66;91.74
23635;BME280;11994;51.038;16.974;2023-03-22T07:50:46;99840.00;;;12.71;91.33
23635;BME280;11994;51.038;16.974;2023-03-22T07:53:11;99838.98;;;12.80;91.35
23635;BME280;11994;51.038;16.974;2023-03-22T07:55:38;99837.08;;;12.88;90.95
23635;BME280;11994;51.038;16.974;2023-03-22T07:58:04;99838.78;;;12.94;90.74
23635;BME280;11994;51.038;16.974;2023-03-22T08:00:30;99839.55;;;13.01;90.34
23635;BME280;11994;51.038;16.974;2023-03-22T08:02:56;99833.23;;;13.06;89.42
23635;BME280;11994;51.038;16.974;2023-03-22T08:05:21;99834.02;;;13.08;89.10
23635;BME280;11994;51.038;16.974;2023-03-22T08:07:48;99832.91;;;13.14;88.72
23635;BME280;11994;51.038;16.974;2023-03-22T08:10:13;99834.30;;;13.23;88.71
23635;BME280;11994;51.038;16.974;2023-03-22T08:12:40;99832.03;;;13.31;87.72
23635;BME280;11994;51.038;16.974;2023-03-22T08:15:06;99832.85;;;13.37;87.27
23635;BME280;11994;51.038;16.974;2023-03-22T08:17:31;99833.59;;;13.44;87.08
23635;BME280;11994;51.038;16.974;2023-03-22T08:19:57;99829.26;;;13.51;86.29
23635;BME280;11994;51.038;16.974;2023-03-22T08:22:23;99820.59;;;13.61;86.07
23635;BME280;11994;51.038;16.974;2023-03-22T08:24:53;99820.39;;;13.74;85.33
23635;BME280;11994;51.038;16.974;2023-03-22T08:27:19;99820.19;;;13.74;83.44
23635;BME280;11994;51.038;16.974;2023-03-22T08:29:44;99825.12;;;13.74;84.45
23635;BME280;11994;51.038;16.974;2023-03-22T08:32:11;99823.89;;;13.78;84.69
23635;BME280;11994;51.038;16.974;2023-03-22T08:34:38;99825.48;;;13.78;84.69
23635;BME280;11994;51.038;16.974;2023-03-22T08:37:05;99823.43;;;13.81;84.87
23635;BME280;11994;51.038;16.974;2023-03-22T08:39:31;99822.46;;;13.87;84.83
23635;BME280;11994;51.038;16.974;2023-03-22T08:41:57;99824.20;;;13.95;84.77
23635;BME280;11994;51.038;16.974;2023-03-22T08:44:22;99821.88;;;14.04;84.43
23635;BME280;11994;51.038;16.974;2023-03-22T08:46:48;99824.41;;;14.02;83.70
23635;BME280;11994;51.038;16.974;2023-03-22T08:49:13;99822.02;;;14.05;84.17
23635;BME280;11994;51.038;16.974;2023-03-22T08:51:39;99816.73;;;14.17;83.04
23635;BME280;11994;51.038;16.974;2023-03-22T08:54:05;99814.36;;;14.31;83.50
23635;BME280;11994;51.038;16.974;2023-03-22T08:56:31;99811.60;;;14.45;82.60
23635;BME280;11994;51.038;16.974;2023-03-22T08:58:57;99811.70;;;14.58;82.47
23635;BME280;11994;51.038;16.974;2023-03-22T09:01:22;99812.66;;;14.60;82.05
23635;BME280;11994;51.038;16.974;2023-03-22T09:03:49;99812.02;;;14.55;81.40
23635;BME280;11994;51.038;16.974;2023-03-22T09:06:15;99813.05;;;14.48;80.60
23635;BME280;11994;51.038;16.974;2023-03-22T09:08:40;99811.58;;;14.42;80.44
23635;BME280;11994;51.038;16.974;2023-03-22T09:11:09;99812.90;;;14.44;81.01
23635;BME280;11994;51.038;16.974;2023-03-22T09:13:35;99807.14;;;14.50;81.09
23635;BME280;11994;51.038;16.974;2023-03-22T09:16:01;99806.17;;;14.59;81.26
23635;BME280;11994;51.038;16.974;2023-03-22T09:18:28;99800.42;;;14.62;80.42
23635;BME280;11994;51.038;16.974;2023-03-22T09:20:53;99800.94;;;14.58;79.75
23635;BME280;11994;51.038;16.974;2023-03-22T09:23:19;99801.45;;;14.55;79.56
23635;BME280;11994;51.038;16.974;2023-03-22T09:25:45;99794.66;;;14.54;79.57
23635;BME280;11994;51.038;16.974;2023-03-22T09:28:11;99795.83;;;14.59;79.94
23635;BME280;11994;51.038;16.974;2023-03-22T09:30:37;99795.84;;;14.66;79.96
23635;BME280;11994;51.038;16.974;2023-03-22T09:33:02;99791.85;;;14.72;79.60
23635;BME280;11994;51.038;16.974;2023-03-22T09:35:28;99787.59;;;14.80;79.29
23635;BME280;11994;51.038;16.974;2023-03-22T09:37:53;99788.31;;;14.87;79.29
23635;BME280;11994;51.038;16.974;2023-03-22T09:40:26;99784.48;;;14.93;78.82
23635;BME280;11994;51.038;16.974;2023-03-22T09:42:54;99788.05;;;15.04;79.15
23635;BME280;11994;51.038;16.974;2023-03-22T09:45:33;99790.65;;;15.15;78.35
23635;BME280;11994;51.038;16.974;2023-03-22T09:48:04;99787.02;;;15.17;76.84
23635;BME280;11994;51.038;16.974;2023-03-22T09:50:32;99788.13;;;15.16;76.82
23635;BME280;11994;51.038;16.974;2023-03-22T09:52:59;99784.52;;;15.21;76.84
23635;BME280;11994;51.038;16.974;2023-03-22T09:55:49;99785.12;;;15.27;76.50
23635;BME280;11994;51.038;16.974;2023-03-22T09:58:35;99783.36;;;15.27;76.74
23635;BME280;11994;51.038;16.974;2023-03-22T10:01:44;99778.11;;;15.37;76.50
23635;BME280;11994;51.038;16.974;2023-03-22T10:06:47;99770.13;;;15.35;75.90
23635;BME280;11994;51.038;16.974;2023-03-22T10:09:20;99776.63;;;15.31;75.85
23635;BME280;11994;51.038;16.974;2023-03-22T10:12:05;99777.50;;;15.28;75.58
23635;BME280;11994;51.038;16.974;2023-03-22T10:14:56;99776.82;;;15.24;75.16
23635;BME280;11994;51.038;16.974;2023-03-22T10:17:26;99777.77;;;15.22;75.09
23635;BME280;11994;51.038;16.974;2023-03-22T10:20:22;99773.56;;;15.26;75.54
23635;BME280;11994;51.038;16.974;2023-03-22T10:22:52;99771.65;;;15.32;75.16
23635;BME280;11994;51.038;16.974;2023-03-22T10:25:30;99775.80;;;15.35;75.18
23635;BME280;11994;51.038;16.974;2023-03-22T10:27:57;99773.90;;;15.40;75.22
23635;BME280;11994;51.038;16.974;2023-03-22T10:30:25;99773.17;;;15.48;74.88
23635;BME280;11994;51.038;16.974;2023-03-22T10:32:58;99767.52;;;15.51;74.76
23635;BME280;11994;51.038;16.974;2023-03-22T10:35:26;99767.31;;;15.59;73.96
23635;BME280;11994;51.038;16.974;2023-03-22T10:37:53;99767.46;;;15.59;73.68
23635;BME280;11994;51.038;16.974;2023-03-22T10:40:25;99766.42;;;15.66;74.15
23635;BME280;11994;51.038;16.974;2023-03-22T10:43:00;99764.48;;;15.73;73.97
23635;BME280;11994;51.038;16.974;2023-03-22T10:45:30;99762.36;;;15.79;74.01
23635;BME280;11994;51.038;16.974;2023-03-22T10:48:01;99762.83;;;15.80;73.69
23635;BME280;11994;51.038;16.974;2023-03-22T10:50:31;99764.30;;;15.83;73.83
23635;BME280;11994;51.038;16.974;2023-03-22T10:55:55;99761.70;;;15.88;73.02
23635;BME280;11994;51.038;16.974;2023-03-22T10:58:30;99759.31;;;15.94;73.35
23635;BME280;11994;51.038;16.974;2023-03-22T11:00:58;99758.64;;;16.06;73.49
23635;BME280;11994;51.038;16.974;2023-03-22T11:03:40;99760.88;;;16.17;73.16
23635;BME280;11994;51.038;16.974;2023-03-22T11:08:46;99753.08;;;16.34;72.03
23635;BME280;11994;51.038;16.974;2023-03-22T11:11:15;99746.43;;;16.33;71.30
23635;BME280;11994;51.038;16.974;2023-03-22T11:13:42;99740.71;;;16.34;71.97
23635;BME280;11994;51.038;16.974;2023-03-22T11:16:16;99741.27;;;16.41;72.32
23635;BME280;11994;51.038;16.974;2023-03-22T11:18:42;99734.48;;;16.48;72.35
23635;BME280;11994;51.038;16.974;2023-03-22T11:21:11;99733.23;;;16.55;72.55
23635;BME280;11994;51.038;16.974;2023-03-22T11:23:40;99729.92;;;16.63;71.98
23635;BME280;11994;51.038;16.974;2023-03-22T11:26:08;99726.14;;;16.65;71.79
23635;BME280;11994;51.038;16.974;2023-03-22T11:28:36;99718.18;;;16.68;70.75
23635;BME280;11994;51.038;16.974;2023-03-22T11:31:15;99709.57;;;16.74;70.89
23635;BME280;11994;51.038;16.974;2023-03-22T11:34:00;99709.76;;;16.79;70.66
23635;BME280;11994;51.038;16.974;2023-03-22T11:36:28;99701.80;;;16.85;70.01
23635;BME280;11994;51.038;16.974;2023-03-22T11:38:59;99697.42;;;16.91;69.88
23635;BME280;11994;51.038;16.974;2023-03-22T11:41:27;99694.64;;;16.96;70.25
23635;BME280;11994;51.038;16.974;2023-03-22T11:44:16;99689.20;;;17.02;69.55
23635;BME280;11994;51.038;16.974;2023-03-22T11:47:01;99691.17;;;17.07;67.48
23635;BME280;11994;51.038;16.974;2023-03-22T11:49:37;99682.92;;;17.12;68.82
23635;BME280;11994;51.038;16.974;2023-03-22T11:52:09;99681.35;;;17.15;68.81
23635;BME280;11994;51.038;16.974;2023-03-22T11:54:37;99676.04;;;17.18;67.37
23635;BME280;11994;51.038;16.974;2023-03-22T11:57:04;99673.14;;;17.22;67.81
23635;BME280;11994;51.038;16.974;2023-03-22T11:59:38;99664.61;;;17.23;66.92
23635;BME280;11994;51.038;16.974;2023-03-22T12:04:42;99655.56;;;17.23;65.32
23635;BME280;11994;51.038;16.974;2023-03-22T12:07:14;99654.79;;;17.24;66.25
23635;BME280;11994;51.038;16.974;2023-03-22T12:10:35;99651.42;;;17.27;64.61
23635;BME280;11994;51.038;16.974;2023-03-22T12:12:40;99646.41;;;17.26;63.09
23635;BME280;11994;51.038;16.974;2023-03-22T12:17:47;99651.11;;;17.38;64.38
23635;BME280;11994;51.038;16.974;2023-03-22T12:20:51;99652.52;;;17.45;64.02
23635;BME280;11994;51.038;16.974;2023-03-22T12:23:21;99652.89;;;17.47;63.20
23635;BME280;11994;51.038;16.974;2023-03-22T12:25:52;99647.40;;;17.50;62.70
23635;BME280;11994;51.038;16.974;2023-03-22T12:28:24;99646.30;;;17.51;61.61
23635;BME280;11994;51.038;16.974;2023-03-22T12:30:53;99644.25;;;17.53;62.47
23635;BME280;11994;51.038;16.974;2023-03-22T12:33:34;99640.20;;;17.56;63.08
23635;BME280;11994;51.038;16.974;2023-03-22T12:36:03;99641.19;;;17.59;63.14
23635;BME280;11994;51.038;16.974;2023-03-22T12:38:47;99638.67;;;17.63;61.97
23635;BME280;11994;51.038;16.974;2023-03-22T12:41:17;99635.54;;;17.70;61.78
23635;BME280;11994;51.038;16.974;2023-03-22T12:44:00;99633.20;;;17.74;61.99
23635;BME280;11994;51.038;16.974;2023-03-22T12:46:30;99635.87;;;17.85;61.54
23635;BME280;11994;51.038;16.974;2023-03-22T12:49:05;99632.37;;;17.93;61.40
23635;BME280;11994;51.038;16.974;2023-03-22T12:51:35;99628.22;;;17.97;60.91
23635;BME280;11994;51.038;16.974;2023-03-22T12:54:01;99626.63;;;18.02;60.86
23635;BME280;11994;51.038;16.974;2023-03-22T12:56:40;99625.66;;;18.06;60.69
23635;BME280;11994;51.038;16.974;2023-03-22T12:59:19;99622.16;;;18.06;60.61
23635;BME280;11994;51.038;16.974;2023-03-22T13:02:15;99618.00;;;18.04;58.53
23635;BME280;11994;51.038;16.974;2023-03-22T13:09:51;99610.84;;;18.00;56.82
23635;BME280;11994;51.038;16.974;2023-03-22T13:27:59;99587.08;;;18.22;56.04
23635;BME280;11994;51.038;16.974;2023-03-22T13:35:53;99579.85;;;18.44;57.12
23635;BME280;11994;51.038;16.974;2023-03-22T13:38:29;99580.98;;;18.51;57.08
23635;BME280;11994;51.038;16.974;2023-03-22T13:43:54;99578.75;;;18.60;57.51
23635;BME280;11994;51.038;16.974;2023-03-22T13:51:30;99570.73;;;18.74;57.00
23635;BME280;11994;51.038;16.974;2023-03-22T13:59:09;99561.79;;;18.59;54.51
23635;BME280;11994;51.038;16.974;2023-03-22T14:01:40;99565.67;;;18.49;54.24
23635;BME280;11994;51.038;16.974;2023-03-22T14:04:10;99563.70;;;18.44;54.88
23635;BME280;11994;51.038;16.974;2023-03-22T14:06:46;99560.59;;;18.43;56.07
23635;BME280;11994;51.038;16.974;2023-03-22T14:09:28;99560.63;;;18.42;56.35
23635;BME280;11994;51.038;16.974;2023-03-22T14:12:06;99555.01;;;18.41;54.33
23635;BME280;11994;51.038;16.974;2023-03-22T14:14:41;99555.20;;;18.41;56.04
23635;BME280;11994;51.038;16.974;2023-03-22T14:17:26;99557.84;;;18.42;56.08
23635;BME280;11994;51.038;16.974;2023-03-22T14:19:54;99557.35;;;18.39;56.00
23635;BME280;11994;51.038;16.974;2023-03-22T14:22:26;99558.40;;;18.36;56.29
23635;BME280;11994;51.038;16.974;2023-03-22T14:24:55;99553.71;;;18.35;56.15
23635;BME280;11994;51.038;16.974;2023-03-22T14:27:22;99555.89;;;18.31;56.20
23635;BME280;11994;51.038;16.974;2023-03-22T14:29:48;99556.23;;;18.28;56.26
23635;BME280;11994;51.038;16.974;2023-03-22T14:32:22;99556.23;;;18.25;56.49